createdAt,value
2019-04-10T00:00:44.739Z,32.40
2019-04-10T00:03:25.921Z,32.30
2019-04-10T00:05:47.963Z,32.20
2019-04-10T00:08:17.942Z,34.00
2019-04-10T00:10:47.982Z,34.00
2019-04-10T00:13:18.416Z,34.00
2019-04-10T00:15:48.700Z,34.00
2019-04-10T00:18:20.008Z,34.00
2019-04-10T00:20:51.032Z,34.00
2019-04-10T00:23:22.649Z,34.00
2019-04-10T00:25:54.069Z,34.00
2019-04-10T00:28:23.894Z,33.90
2019-04-10T00:30:53.706Z,33.90
2019-04-10T00:33:24.926Z,34.00
2019-04-10T00:35:56.141Z,33.90
2019-04-10T00:38:26.124Z,33.90
2019-04-10T00:40:56.138Z,33.90
2019-04-10T00:43:26.701Z,34.00
2019-04-10T00:45:58.118Z,33.90
2019-04-10T00:48:28.035Z,33.90
2019-04-10T00:50:57.826Z,33.90
2019-04-10T00:53:27.633Z,34.00
2019-04-10T00:55:57.510Z,33.90
2019-04-10T00:58:27.998Z,33.90
2019-04-10T01:00:59.190Z,33.90
2019-04-10T01:03:46.648Z,33.90
2019-04-10T01:06:16.253Z,33.90
2019-04-10T01:08:46.035Z,33.90
2019-04-10T01:11:17.016Z,33.90
2019-04-10T01:13:47.421Z,33.90
2019-04-10T01:16:19.608Z,33.90
2019-04-10T01:18:49.433Z,33.80
2019-04-10T01:21:19.967Z,33.80
2019-04-10T01:23:50.015Z,33.90
2019-04-10T01:26:20.906Z,33.80
2019-04-10T01:28:51.259Z,33.80
2019-04-10T01:31:21.435Z,33.80
2019-04-10T01:33:52.719Z,33.90
2019-04-10T01:36:23.846Z,33.90
2019-04-10T01:38:53.805Z,33.80
2019-04-10T01:41:23.973Z,33.80
2019-04-10T01:43:53.722Z,33.80
2019-04-10T01:46:24.445Z,33.80
2019-04-10T01:48:55.441Z,33.90
2019-04-10T01:51:25.618Z,33.80
2019-04-10T01:53:55.402Z,33.80
2019-04-10T01:56:31.659Z,33.80
2019-04-10T01:58:57.296Z,33.80
2019-04-10T02:01:32.550Z,33.80
2019-04-10T02:04:03.023Z,33.80
2019-04-10T02:06:33.635Z,33.80
2019-04-10T02:09:04.601Z,33.80
2019-04-10T02:11:34.478Z,33.70
2019-04-10T02:14:05.621Z,33.70
2019-04-10T02:16:35.995Z,33.70
2019-04-10T02:19:06.054Z,33.70
2019-04-10T02:21:36.010Z,33.70
2019-04-10T02:24:06.967Z,33.70
2019-04-10T02:26:38.057Z,33.70
2019-04-10T02:29:07.944Z,33.70
2019-04-10T02:34:32.630Z,33.70
2019-04-10T02:37:02.735Z,33.70
2019-04-10T02:39:39.864Z,33.70
2019-04-10T02:42:05.977Z,33.70
2019-04-10T02:44:37.585Z,33.60
2019-04-10T02:47:07.415Z,33.60
2019-04-10T02:49:38.599Z,33.60
2019-04-10T02:52:08.854Z,33.60
2019-04-10T02:54:41.717Z,33.60
2019-04-10T02:57:13.438Z,33.60
2019-04-10T02:59:45.239Z,33.60
2019-04-10T03:02:16.191Z,33.60
2019-04-10T03:04:46.687Z,33.50
2019-04-10T03:07:17.756Z,33.50
2019-04-10T03:10:00.471Z,33.10
2019-04-10T03:12:21.925Z,33.50
2019-04-10T03:14:54.019Z,33.50
2019-04-10T03:17:24.014Z,33.50
2019-04-10T03:19:54.062Z,33.50
2019-04-10T03:22:24.993Z,33.50
2019-04-10T03:24:56.762Z,33.40
2019-04-10T03:27:26.743Z,33.50
2019-04-10T03:29:56.588Z,33.40
2019-04-10T03:32:55.841Z,33.40
2019-04-10T03:35:26.935Z,33.40
2019-04-10T03:37:57.386Z,33.40
2019-04-10T03:40:27.218Z,33.40
2019-04-10T03:42:57.314Z,33.40
2019-04-10T03:45:27.180Z,33.40
2019-04-10T03:47:59.882Z,33.40
2019-04-10T03:50:33.934Z,33.40
2019-04-10T03:53:03.830Z,33.40
2019-04-10T03:55:34.750Z,33.30
2019-04-10T03:58:04.726Z,33.40
2019-04-10T04:00:36.308Z,33.30
2019-04-10T04:03:06.478Z,33.30
2019-04-10T04:05:37.115Z,33.30
2019-04-10T04:08:07.572Z,33.30
2019-04-10T04:10:37.620Z,33.20
2019-04-10T04:13:07.616Z,33.20
2019-04-10T04:15:37.920Z,33.20
2019-04-10T04:18:08.872Z,33.20
2019-04-10T04:20:39.194Z,33.20
2019-04-10T04:23:09.562Z,33.20
2019-04-10T04:25:39.507Z,33.20
2019-04-10T04:28:09.339Z,33.20
2019-04-10T04:30:39.134Z,33.20
2019-04-10T04:33:10.829Z,33.20
2019-04-10T04:35:40.904Z,33.10
2019-04-10T04:38:11.368Z,33.10
2019-04-10T04:40:42.047Z,33.10
2019-04-10T04:43:12.504Z,33.10
2019-04-10T04:45:42.481Z,33.10
2019-04-10T04:48:15.407Z,33.00
2019-04-10T04:50:45.726Z,33.10
2019-04-10T04:53:16.327Z,33.00
2019-04-10T04:55:58.314Z,33.00
2019-04-10T04:58:28.436Z,33.00
2019-04-10T05:00:58.553Z,33.00
2019-04-10T05:03:29.093Z,33.00
2019-04-10T05:06:00.353Z,32.90
2019-04-10T05:08:30.374Z,32.90
2019-04-10T05:11:00.264Z,32.90
2019-04-10T05:13:31.272Z,32.90
2019-04-10T05:16:02.538Z,32.80
2019-04-10T05:18:32.701Z,32.80
2019-04-10T05:21:03.351Z,32.80
2019-04-10T05:23:33.208Z,32.80
2019-04-10T05:26:03.794Z,32.80
2019-04-10T05:28:33.579Z,32.70
2019-04-10T05:31:03.511Z,32.60
2019-04-10T05:33:34.147Z,32.70
2019-04-10T05:36:04.728Z,32.70
2019-04-10T05:38:36.026Z,32.60
2019-04-10T05:41:06.946Z,32.60
2019-04-10T05:43:37.032Z,32.60
2019-04-10T05:46:07.180Z,32.60
2019-04-10T05:48:39.770Z,32.50
2019-04-10T05:51:09.834Z,32.50
2019-04-10T05:53:41.050Z,32.50
2019-04-10T05:56:12.191Z,32.50
2019-04-10T05:58:42.819Z,32.50
2019-04-10T06:01:15.842Z,32.50
2019-04-10T06:03:47.188Z,32.50
2019-04-10T06:06:17.291Z,32.40
2019-04-10T06:08:47.160Z,32.30
2019-04-10T06:11:18.341Z,32.20
2019-04-10T06:13:48.548Z,32.20
2019-04-10T06:16:19.541Z,32.10
2019-04-10T06:18:49.507Z,32.10
2019-04-10T06:21:19.474Z,32.10
2019-04-10T06:23:49.829Z,31.90
2019-04-10T06:26:20.052Z,31.80
2019-04-10T06:28:50.537Z,31.70
2019-04-10T06:31:21.235Z,31.60
2019-04-10T06:33:52.767Z,31.50
2019-04-10T06:36:23.111Z,31.50
2019-04-10T06:38:53.097Z,31.40
2019-04-10T06:41:22.940Z,31.50
2019-04-10T06:43:53.121Z,31.40
2019-04-10T06:46:24.243Z,31.30
2019-04-10T06:48:56.326Z,31.20
2019-04-10T06:51:27.749Z,31.10
2019-04-10T06:54:04.946Z,31.20
2019-04-10T06:56:33.371Z,31.20
2019-04-10T06:59:06.556Z,31.20
2019-04-10T07:01:44.428Z,31.10
2019-04-10T07:04:11.480Z,31.10
2019-04-10T07:07:00.113Z,31.10
2019-04-10T07:09:25.179Z,31.10
2019-04-10T07:11:58.258Z,31.00
2019-04-10T07:14:26.812Z,31.00
2019-04-10T07:17:01.683Z,30.90
2019-04-10T07:19:30.346Z,30.90
2019-04-10T07:22:01.930Z,30.90
2019-04-10T07:24:36.964Z,30.80
2019-04-10T07:27:05.199Z,30.60
2019-04-10T07:29:36.324Z,30.60
2019-04-10T07:32:08.637Z,30.60
2019-04-10T07:34:40.302Z,30.60
2019-04-10T07:37:12.136Z,30.60
2019-04-10T07:39:44.664Z,30.50
2019-04-10T07:42:25.972Z,30.50
2019-04-10T07:44:45.473Z,30.70
2019-04-10T07:47:15.746Z,30.50
2019-04-10T07:49:46.583Z,30.50
2019-04-10T07:52:17.129Z,30.50
2019-04-10T07:54:50.317Z,30.60
2019-04-10T07:57:40.630Z,30.80
2019-04-10T08:00:14.119Z,30.70
2019-04-10T08:02:44.844Z,30.60
2019-04-10T08:05:16.972Z,30.60
2019-04-10T08:07:48.319Z,31.00
2019-04-10T08:10:20.407Z,30.60
2019-04-10T08:12:53.661Z,30.30
2019-04-10T08:15:22.222Z,30.50
2019-04-10T08:17:52.469Z,30.90
2019-04-10T08:20:22.449Z,30.50
2019-04-10T08:22:55.481Z,30.50
2019-04-10T08:25:25.334Z,30.50
2019-04-10T08:27:56.328Z,30.30
2019-04-10T08:30:27.966Z,30.40
2019-04-10T08:33:01.257Z,30.00
2019-04-10T08:35:31.535Z,30.20
2019-04-10T08:38:01.610Z,30.20
2019-04-10T08:40:32.110Z,30.30
2019-04-10T08:43:02.162Z,30.50
2019-04-10T08:45:40.627Z,30.20
2019-04-10T08:48:03.653Z,30.10
2019-04-10T08:50:34.454Z,30.00
2019-04-10T08:53:06.110Z,30.00
2019-04-10T08:55:36.129Z,29.90
2019-04-10T08:58:06.211Z,29.80
2019-04-10T09:00:36.525Z,29.80
2019-04-10T09:03:08.749Z,29.60
2019-04-10T09:05:38.975Z,29.60
2019-04-10T09:08:08.842Z,29.50
2019-04-10T09:10:38.730Z,29.50
2019-04-10T09:13:08.665Z,29.70
2019-04-10T09:15:38.486Z,29.30
2019-04-10T09:18:10.052Z,29.30
2019-04-10T09:20:40.562Z,29.20
2019-04-10T09:23:23.503Z,29.30
2019-04-10T09:25:42.246Z,29.30
2019-04-10T09:28:12.054Z,29.40
2019-04-10T09:30:42.753Z,29.50
2019-04-10T09:33:21.482Z,29.50
2019-04-10T09:35:46.893Z,29.50
2019-04-10T09:38:16.985Z,29.50
2019-04-10T09:40:46.879Z,29.50
2019-04-10T09:43:17.678Z,29.50
2019-04-10T09:45:48.083Z,29.50
2019-04-10T09:48:19.702Z,29.50
2019-04-10T09:50:51.066Z,29.60
